Time;durP1;ratioP1;P1;durP2;ratioP2;P2;SDS_P1;SDS_P2;PMS_P1;PMS_P2;Temp;Humidity;BMP_temperature;BMP_pressure;BME280_temperature;BME280_humidity;BME280_pressure;Samples;Min_cycle;Max_cycle;Signal;HPM_P1;HPM_P2
2024/03/25 00:00:24;;;;;;;0.50;0.35;;;;;;;;;;5116732;28;20421;-61
2024/03/25 00:02:51;;;;;;;1.65;0.20;;;;;;;;;;5116349;28;20027;-62
2024/03/25 00:05:22;;;;;;;0.45;0.20;;;;;;;;;;5116525;28;20123;-62
2024/03/25 00:07:47;;;;;;;3.13;0.28;;;;;;;;;;5115409;28;20034;-62
2024/03/25 00:10:12;;;;;;;0.20;0.20;;;;;;;;;;5116013;28;20020;-62
2024/03/25 00:12:38;;;;;;;0.10;0.10;;;;;;;;;;5116506;27;20022;-61
2024/03/25 00:15:04;;;;;;;0.20;0.10;;;;;;;;;;5116138;28;20055;-62
2024/03/25 00:17:32;;;;;;;0.57;0.20;;;;;;;;;;5115718;28;20031;-61
2024/03/25 00:19:57;;;;;;;0.20;0.10;;;;;;;;;;5096271;28;20020;-58
2024/03/25 00:22:25;;;;;;;0.15;0.10;;;;;;;;;;5095990;28;20435;-62
2024/03/25 00:24:51;;;;;;;1.40;0.10;;;;;;;;;;5094704;28;20024;-60
2024/03/25 00:27:16;;;;;;;0.10;0.10;;;;;;;;;;5095840;28;20115;-62
2024/03/25 00:29:42;;;;;;;0.25;0.20;;;;;;;;;;5094715;28;20024;-63
2024/03/25 00:32:07;;;;;;;2.30;0.10;;;;;;;;;;5095541;28;20020;-62
2024/03/25 00:34:33;;;;;;;0.30;0.20;;;;;;;;;;5113214;28;20020;-63
2024/03/25 00:36:59;;;;;;;0.10;0.10;;;;;;;;;;5114470;27;20035;-57
2024/03/25 00:39:25;;;;;;;1.95;0.10;;;;;;;;;;5115907;28;20034;-63
2024/03/25 00:41:51;;;;;;;0.10;0.10;;;;;;;;;;5114689;28;20441;-63
2024/03/25 00:44:16;;;;;;;0.35;0.13;;;;;;;;;;5115955;28;20100;-61
2024/03/25 00:46:42;;;;;;;0.10;0.10;;;;;;;;;;5116003;27;20027;-62
2024/03/25 00:49:08;;;;;;;0.35;0.30;;;;;;;;;;5115274;28;20339;-61
2024/03/25 00:51:33;;;;;;;0.10;0.10;;;;;;;;;;5114995;28;20050;-61
2024/03/25 00:53:59;;;;;;;0.20;0.10;;;;;;;;;;5115940;28;20051;-60
2024/03/25 00:56:24;;;;;;;0.13;0.10;;;;;;;;;;5114193;28;20058;-64
2024/03/25 00:58:50;;;;;;;0.20;0.20;;;;;;;;;;5115152;28;20020;-62
2024/03/25 01:01:15;;;;;;;0.10;0.10;;;;;;;;;;5114440;28;20023;-61
2024/03/25 01:03:41;;;;;;;0.47;0.10;;;;;;;;;;5115609;28;20023;-60
2024/03/25 01:06:06;;;;;;;0.15;0.10;;;;;;;;;;5114605;28;20035;-62
2024/03/25 01:08:31;;;;;;;0.10;0.10;;;;;;;;;;5097279;28;20019;-61
2024/03/25 01:10:57;;;;;;;0.10;0.10;;;;;;;;;;5101571;28;20192;-63
2024/03/25 01:13:22;;;;;;;0.82;0.10;;;;;;;;;;5095083;28;20484;-62
2024/03/25 01:15:48;;;;;;;0.20;0.10;;;;;;;;;;5107709;28;20035;-62
2024/03/25 01:18:13;;;;;;;0.05;0.00;;;;;;;;;;5114366;28;20026;-62
2024/03/25 01:20:38;;;;;;;0.10;0.10;;;;;;;;;;5104165;28;20028;-60
2024/03/25 01:23:04;;;;;;;0.30;0.20;;;;;;;;;;5094398;28;20020;-62
2024/03/25 01:25:30;;;;;;;0.52;0.22;;;;;;;;;;5095099;28;20016;-62
2024/03/25 01:27:55;;;;;;;1.45;0.20;;;;;;;;;;5094491;28;20351;-62
2024/03/25 01:30:21;;;;;;;0.30;0.20;;;;;;;;;;5094152;28;20512;-63
2024/03/25 01:32:50;;;;;;;0.10;0.10;;;;;;;;;;5094512;28;20020;-61
2024/03/25 01:35:15;;;;;;;0.32;0.20;;;;;;;;;;5102497;28;20047;-61
2024/03/25 01:37:41;;;;;;;0.10;0.10;;;;;;;;;;5114679;28;20469;-62
2024/03/25 01:40:07;;;;;;;0.20;0.10;;;;;;;;;;5114448;28;20019;-63
2024/03/25 01:42:32;;;;;;;0.20;0.20;;;;;;;;;;5114592;28;20075;-55
2024/03/25 01:44:58;;;;;;;0.28;0.10;;;;;;;;;;5114880;28;20023;-62
2024/03/25 01:47:23;;;;;;;0.28;0.20;;;;;;;;;;5112718;28;20413;-62
2024/03/25 01:49:53;;;;;;;0.10;0.10;;;;;;;;;;5113232;28;20024;-61
2024/03/25 01:52:20;;;;;;;0.20;0.10;;;;;;;;;;5114310;28;20027;-62
2024/03/25 01:54:45;;;;;;;0.52;0.10;;;;;;;;;;5114252;28;20052;-63
2024/03/25 01:57:10;;;;;;;0.20;0.20;;;;;;;;;;5114250;28;20039;-63
2024/03/25 01:59:36;;;;;;;0.30;0.25;;;;;;;;;;5094269;28;20020;-62
2024/03/25 02:02:02;;;;;;;0.30;0.20;;;;;;;;;;5093939;28;20024;-60
2024/03/25 02:04:28;;;;;;;0.40;0.30;;;;;;;;;;5093060;28;20028;-63
2024/03/25 02:06:55;;;;;;;1.00;0.20;;;;;;;;;;5094043;28;20066;-63
2024/03/25 02:09:22;;;;;;;0.30;0.20;;;;;;;;;;5093386;28;20028;-63
2024/03/25 02:11:48;;;;;;;0.10;0.10;;;;;;;;;;5093655;28;20031;-62
2024/03/25 02:14:14;;;;;;;0.17;0.15;;;;;;;;;;5093926;28;20461;-62
2024/03/25 02:16:39;;;;;;;0.10;0.10;;;;;;;;;;5093344;28;20036;-63
2024/03/25 02:19:05;;;;;;;0.30;0.10;;;;;;;;;;5093307;28;20089;-58
2024/03/25 02:21:30;;;;;;;0.35;0.10;;;;;;;;;;5093829;28;20419;-63
2024/03/25 02:23:56;;;;;;;0.20;0.20;;;;;;;;;;5110543;28;20118;-62
2024/03/25 02:26:23;;;;;;;0.15;0.10;;;;;;;;;;5113690;28;20027;-61
2024/03/25 02:28:48;;;;;;;0.38;0.20;;;;;;;;;;5096373;28;20040;-62
2024/03/25 02:31:14;;;;;;;0.20;0.20;;;;;;;;;;5092781;28;20099;-62
2024/03/25 02:33:39;;;;;;;1.60;0.45;;;;;;;;;;5093264;28;20036;-62
2024/03/25 02:36:05;;;;;;;0.88;0.30;;;;;;;;;;5093367;28;20024;-62
2024/03/25 02:38:32;;;;;;;0.25;0.20;;;;;;;;;;5109035;28;20028;-63
2024/03/25 02:40:57;;;;;;;0.25;0.20;;;;;;;;;;5112971;28;20088;-62
2024/03/25 02:43:23;;;;;;;0.43;0.32;;;;;;;;;;5113560;28;20019;-63
2024/03/25 02:45:48;;;;;;;0.17;0.17;;;;;;;;;;5112684;28;20293;-62
2024/03/25 02:48:14;;;;;;;0.10;0.10;;;;;;;;;;5113438;28;20082;-63
2024/03/25 02:50:39;;;;;;;0.28;0.10;;;;;;;;;;5111905;28;20075;-61
2024/03/25 02:53:05;;;;;;;0.30;0.20;;;;;;;;;;5113584;28;20055;-61
2024/03/25 02:55:31;;;;;;;0.30;0.25;;;;;;;;;;5112959;28;20310;-61
2024/03/25 02:57:56;;;;;;;0.30;0.20;;;;;;;;;;5113206;28;20039;-62
2024/03/25 03:00:21;;;;;;;0.30;0.20;;;;;;;;;;5113542;28;20381;-62
2024/03/25 03:02:47;;;;;;;0.30;0.20;;;;;;;;;;5113296;28;20015;-63
2024/03/25 03:05:12;;;;;;;1.15;0.20;;;;;;;;;;5112711;28;20026;-63
2024/03/25 03:07:37;;;;;;;0.40;0.28;;;;;;;;;;5112291;28;20032;-58
2024/03/25 03:10:03;;;;;;;0.28;0.20;;;;;;;;;;5113682;28;20402;-62
2024/03/25 03:12:30;;;;;;;0.30;0.30;;;;;;;;;;5113398;28;20033;-62
2024/03/25 03:14:55;;;;;;;0.20;0.20;;;;;;;;;;5111143;28;20035;-63
2024/03/25 03:17:20;;;;;;;0.98;0.50;;;;;;;;;;5110844;28;20032;-61
2024/03/25 03:19:46;;;;;;;1.02;0.50;;;;;;;;;;5113011;28;20404;-62
2024/03/25 03:22:11;;;;;;;0.60;0.40;;;;;;;;;;5112947;28;20024;-60
2024/03/25 03:24:36;;;;;;;1.48;0.65;;;;;;;;;;5112962;28;20478;-60
2024/03/25 03:27:02;;;;;;;1.27;0.80;;;;;;;;;;5112614;28;20016;-61
2024/03/25 03:29:27;;;;;;;1.35;0.70;;;;;;;;;;5113136;28;20032;-61
2024/03/25 03:31:53;;;;;;;1.77;0.50;;;;;;;;;;5112349;28;20051;-61
2024/03/25 03:34:18;;;;;;;1.40;0.45;;;;;;;;;;5111401;28;20023;-62
2024/03/25 03:36:43;;;;;;;0.60;0.50;;;;;;;;;;5112739;28;20310;-60
2024/03/25 03:39:09;;;;;;;0.80;0.55;;;;;;;;;;5111557;28;20020;-59
2024/03/25 03:41:35;;;;;;;1.77;0.40;;;;;;;;;;5113194;28;20020;-62
2024/03/25 03:44:00;;;;;;;0.70;0.50;;;;;;;;;;5109691;28;20108;-62
2024/03/25 03:46:26;;;;;;;0.88;0.60;;;;;;;;;;5112583;28;20505;-61
2024/03/25 03:48:51;;;;;;;1.13;0.50;;;;;;;;;;5112714;28;20031;-60
2024/03/25 03:51:16;;;;;;;1.65;0.80;;;;;;;;;;5111764;28;20110;-59
2024/03/25 03:53:42;;;;;;;2.25;0.55;;;;;;;;;;5112593;28;20446;-62
2024/03/25 03:56:07;;;;;;;0.90;0.35;;;;;;;;;;5112988;28;20027;-62
2024/03/25 03:58:33;;;;;;;1.25;0.65;;;;;;;;;;5100996;28;20068;-64
2024/03/25 04:00:58;;;;;;;0.73;0.50;;;;;;;;;;5092270;28;20023;-61
2024/03/25 04:03:24;;;;;;;1.75;0.50;;;;;;;;;;5091438;28;20020;-63
2024/03/25 04:05:49;;;;;;;0.88;0.50;;;;;;;;;;5091942;28;20028;-61
2024/03/25 04:08:15;;;;;;;0.82;0.40;;;;;;;;;;5092205;28;20462;-62
2024/03/25 04:10:40;;;;;;;1.33;0.50;;;;;;;;;;5092634;28;20422;-60
2024/03/25 04:13:07;;;;;;;0.90;0.40;;;;;;;;;;5092217;28;20084;-62
2024/03/25 04:15:33;;;;;;;1.52;0.57;;;;;;;;;;5091712;28;20099;-61
2024/03/25 04:17:58;;;;;;;2.72;0.70;;;;;;;;;;5102094;28;20123;-61
2024/03/25 04:20:24;;;;;;;0.50;0.40;;;;;;;;;;5112324;28;20502;-62
2024/03/25 04:22:49;;;;;;;1.13;0.55;;;;;;;;;;5111998;28;20024;-62
2024/03/25 04:25:15;;;;;;;0.65;0.40;;;;;;;;;;5112368;28;20030;-61
2024/03/25 04:27:40;;;;;;;0.82;0.60;;;;;;;;;;5116613;28;20045;-63
2024/03/25 04:30:07;;;;;;;1.23;0.60;;;;;;;;;;5115927;27;20078;-62
2024/03/25 04:32:33;;;;;;;0.63;0.38;;;;;;;;;;5115525;27;20023;-62
2024/03/25 04:34:58;;;;;;;3.67;0.50;;;;;;;;;;5116125;28;20039;-63
2024/03/25 04:37:24;;;;;;;1.27;0.60;;;;;;;;;;5116138;28;20091;-62
2024/03/25 04:39:49;;;;;;;2.47;0.70;;;;;;;;;;5083410;28;20466;-62
2024/03/25 04:42:14;;;;;;;1.75;0.65;;;;;;;;;;5074921;28;20039;-60
2024/03/25 04:44:40;;;;;;;0.98;0.70;;;;;;;;;;5058010;28;20028;-61
2024/03/25 04:47:06;;;;;;;2.45;0.77;;;;;;;;;;5075103;28;20384;-63
2024/03/25 04:49:31;;;;;;;1.00;0.50;;;;;;;;;;5090273;28;20021;-63
2024/03/25 04:51:56;;;;;;;1.70;0.60;;;;;;;;;;5075028;28;20027;-61
2024/03/25 04:54:22;;;;;;;1.30;0.50;;;;;;;;;;5083621;28;20047;-64
2024/03/25 04:56:47;;;;;;;0.63;0.50;;;;;;;;;;5094423;28;20051;-59
2024/03/25 04:59:13;;;;;;;1.80;0.70;;;;;;;;;;5095282;28;20427;-60
2024/03/25 05:01:38;;;;;;;1.15;0.60;;;;;;;;;;5096408;28;20036;-61
2024/03/25 05:04:03;;;;;;;2.10;0.70;;;;;;;;;;5094322;28;20063;-62
2024/03/25 05:06:29;;;;;;;2.63;0.70;;;;;;;;;;5095122;28;20032;-62
2024/03/25 05:08:54;;;;;;;1.20;0.65;;;;;;;;;;5094821;28;20059;-61
2024/03/25 05:11:19;;;;;;;2.00;0.70;;;;;;;;;;5094710;28;20020;-63
2024/03/25 05:13:45;;;;;;;2.35;0.90;;;;;;;;;;5093528;28;20034;-62
2024/03/25 05:16:10;;;;;;;1.80;1.17;;;;;;;;;;5094862;28;20394;-62
2024/03/25 05:18:36;;;;;;;2.63;0.65;;;;;;;;;;5093442;28;20024;-62
2024/03/25 05:21:01;;;;;;;2.15;0.95;;;;;;;;;;5101945;28;20372;-61
2024/03/25 05:23:27;;;;;;;0.80;0.55;;;;;;;;;;5097144;28;20139;-62
2024/03/25 05:25:52;;;;;;;0.90;0.57;;;;;;;;;;5114259;28;20030;-62
2024/03/25 05:28:17;;;;;;;1.13;0.52;;;;;;;;;;5114352;28;20508;-63
2024/03/25 05:30:43;;;;;;;1.30;0.60;;;;;;;;;;5114955;28;20020;-61
2024/03/25 05:33:08;;;;;;;1.40;0.70;;;;;;;;;;5114572;28;20023;-63
2024/03/25 05:35:36;;;;;;;2.00;0.73;;;;;;;;;;5106058;28;20145;-66
2024/03/25 05:38:03;;;;;;;1.13;0.70;;;;;;;;;;5093191;28;20046;-62
2024/03/25 05:40:28;;;;;;;1.38;0.75;;;;;;;;;;5102247;28;20023;-64
2024/03/25 05:42:54;;;;;;;1.95;0.90;;;;;;;;;;5094634;28;20358;-57
2024/03/25 05:45:19;;;;;;;0.90;0.60;;;;;;;;;;5092929;28;20024;-59
2024/03/25 05:47:45;;;;;;;2.30;0.80;;;;;;;;;;5093947;28;20089;-59
2024/03/25 05:50:10;;;;;;;1.55;0.60;;;;;;;;;;5095112;28;20024;-62
2024/03/25 05:52:36;;;;;;;1.02;0.50;;;;;;;;;;5093438;28;20240;-62
2024/03/25 05:55:02;;;;;;;1.08;0.60;;;;;;;;;;5093624;28;20040;-63
2024/03/25 05:57:28;;;;;;;1.30;0.80;;;;;;;;;;5093195;28;20036;-61
2024/03/25 05:59:54;;;;;;;1.48;0.98;;;;;;;;;;5093447;28;20024;-62
2024/03/25 06:02:19;;;;;;;2.50;0.70;;;;;;;;;;5094494;28;20051;-62
2024/03/25 06:04:44;;;;;;;3.13;0.90;;;;;;;;;;5094051;28;20354;-63
2024/03/25 06:07:10;;;;;;;3.33;0.80;;;;;;;;;;5093464;28;20024;-60
2024/03/25 06:09:35;;;;;;;2.30;0.70;;;;;;;;;;5092987;28;20020;-63
2024/03/25 06:12:00;;;;;;;1.75;0.85;;;;;;;;;;5093128;28;20452;-68
2024/03/25 06:14:26;;;;;;;2.22;0.77;;;;;;;;;;5093255;28;20387;-62
2024/03/25 06:16:51;;;;;;;3.38;1.00;;;;;;;;;;5093053;28;20031;-60
2024/03/25 06:19:16;;;;;;;1.00;0.93;;;;;;;;;;5093593;28;20417;-60
2024/03/25 06:21:42;;;;;;;1.85;0.75;;;;;;;;;;5093730;28;20346;-60
2024/03/25 06:24:08;;;;;;;0.88;0.47;;;;;;;;;;5093455;28;20320;-58
2024/03/25 06:26:34;;;;;;;2.22;0.80;;;;;;;;;;5093133;28;20408;-59
2024/03/25 06:29:00;;;;;;;2.60;1.05;;;;;;;;;;5102154;28;20058;-60
2024/03/25 06:34:19;;;;;;;2.05;0.70;;;;;;;;;;5113728;28;20027;-61
2024/03/25 06:36:45;;;;;;;;;;;;;;;;;;5113896;28;20442;-62
2024/03/25 06:39:11;;;;;;;3.80;0.80;;;;;;;;;;5105473;28;19904;-61
2024/03/25 06:41:36;;;;;;;1.98;0.70;;;;;;;;;;5093424;28;20020;-61
2024/03/25 06:44:02;;;;;;;3.08;0.90;;;;;;;;;;5093018;28;20020;-61
2024/03/25 06:46:27;;;;;;;2.58;0.95;;;;;;;;;;5092719;28;20028;-59
2024/03/25 06:48:52;;;;;;;2.13;1.05;;;;;;;;;;5092887;28;20023;-61
2024/03/25 06:51:18;;;;;;;1.25;0.73;;;;;;;;;;5093500;28;20016;-60
2024/03/25 06:53:43;;;;;;;1.55;0.80;;;;;;;;;;5097762;28;20054;-63
2024/03/25 06:56:09;;;;;;;5.43;1.05;;;;;;;;;;5112738;28;20039;-61
2024/03/25 06:58:34;;;;;;;1.83;1.23;;;;;;;;;;5113134;28;20426;-62
2024/03/25 07:01:07;;;;;;;2.58;1.40;;;;;;;;;;5112332;28;20024;-62
2024/03/25 07:03:33;;;;;;;2.78;1.30;;;;;;;;;;5113029;28;20026;-58
2024/03/25 07:06:00;;;;;;;4.90;1.50;;;;;;;;;;5107261;28;20024;-61
2024/03/25 07:08:26;;;;;;;2.45;1.20;;;;;;;;;;5092818;28;20157;-61
2024/03/25 07:10:52;;;;;;;2.83;1.08;;;;;;;;;;5092777;28;20103;-59
2024/03/25 07:13:17;;;;;;;3.10;1.30;;;;;;;;;;5091812;28;20132;-58
2024/03/25 07:15:43;;;;;;;5.03;2.33;;;;;;;;;;5092350;28;20474;-57
2024/03/25 07:18:10;;;;;;;4.13;1.70;;;;;;;;;;5092227;28;20130;-58
2024/03/25 07:20:36;;;;;;;4.15;1.80;;;;;;;;;;5093683;28;20023;-59
2024/03/25 07:23:02;;;;;;;7.18;1.70;;;;;;;;;;5093258;28;20031;-60
2024/03/25 07:25:28;;;;;;;5.70;1.50;;;;;;;;;;5092362;28;20020;-58
2024/03/25 07:27:53;;;;;;;2.80;1.38;;;;;;;;;;5091359;28;20362;-63
2024/03/25 07:30:19;;;;;;;2.08;1.35;;;;;;;;;;5091966;28;20060;-59
2024/03/25 07:32:47;;;;;;;5.18;1.27;;;;;;;;;;5091843;28;20024;-62
2024/03/25 07:35:13;;;;;;;4.38;1.15;;;;;;;;;;5092100;28;20081;-69
2024/03/25 07:37:38;;;;;;;4.25;1.40;;;;;;;;;;5091587;28;20408;-59
2024/03/25 07:40:04;;;;;;;4.53;1.85;;;;;;;;;;5092498;28;20103;-61
2024/03/25 07:42:30;;;;;;;5.93;1.45;;;;;;;;;;5092156;28;20073;-61
2024/03/25 07:44:55;;;;;;;1.98;1.10;;;;;;;;;;5091947;28;20028;-62
2024/03/25 07:47:21;;;;;;;4.55;1.30;;;;;;;;;;5106929;28;20032;-64
2024/03/25 07:49:46;;;;;;;5.00;1.10;;;;;;;;;;5097303;28;20020;-62
2024/03/25 07:52:11;;;;;;;4.13;1.75;;;;;;;;;;5088614;28;20418;-61
2024/03/25 07:54:37;;;;;;;3.33;1.30;;;;;;;;;;5090906;28;20051;-64
2024/03/25 07:57:03;;;;;;;3.40;1.42;;;;;;;;;;5090950;28;20420;-64
2024/03/25 07:59:29;;;;;;;3.90;1.63;;;;;;;;;;5092070;28;20498;-63
2024/03/25 08:01:54;;;;;;;2.40;1.25;;;;;;;;;;5094607;28;20016;-64
2024/03/25 08:04:19;;;;;;;4.78;1.15;;;;;;;;;;5095764;28;20024;-64
2024/03/25 08:06:45;;;;;;;2.15;1.08;;;;;;;;;;5094569;28;20012;-64
2024/03/25 08:09:12;;;;;;;5.05;1.88;;;;;;;;;;5096324;28;20020;-65
2024/03/25 08:11:37;;;;;;;3.60;1.30;;;;;;;;;;5095924;28;20035;-64
2024/03/25 08:14:03;;;;;;;3.85;1.70;;;;;;;;;;5102767;28;20030;-68
2024/03/25 08:16:28;;;;;;;3.72;1.27;;;;;;;;;;5113113;28;20054;-65
2024/03/25 08:18:53;;;;;;;2.97;1.45;;;;;;;;;;5093765;28;20439;-63
2024/03/25 08:21:19;;;;;;;8.02;1.80;;;;;;;;;;5095881;28;20028;-60
2024/03/25 08:23:45;;;;;;;3.47;1.35;;;;;;;;;;5095163;28;20450;-62
2024/03/25 08:26:10;;;;;;;4.13;1.50;;;;;;;;;;5094820;28;20028;-59
2024/03/25 08:28:36;;;;;;;5.20;1.63;;;;;;;;;;5094543;28;20024;-60
2024/03/25 08:31:01;;;;;;;3.35;1.30;;;;;;;;;;5094823;28;20048;-61
2024/03/25 08:33:28;;;;;;;5.50;1.70;;;;;;;;;;5095233;28;20362;-62
2024/03/25 08:35:53;;;;;;;5.90;1.52;;;;;;;;;;5094118;28;20020;-57
2024/03/25 08:38:19;;;;;;;3.15;1.30;;;;;;;;;;5094513;28;20028;-61
2024/03/25 08:40:44;;;;;;;4.28;1.30;;;;;;;;;;5093760;28;20020;-64
2024/03/25 08:43:09;;;;;;;5.38;1.80;;;;;;;;;;5093295;28;20043;-63
2024/03/25 08:45:35;;;;;;;4.95;1.40;;;;;;;;;;5095119;28;20415;-61
2024/03/25 08:48:00;;;;;;;4.60;1.50;;;;;;;;;;5103052;28;20342;-62
2024/03/25 08:50:25;;;;;;;9.68;1.58;;;;;;;;;;5114818;28;20115;-62
2024/03/25 08:52:51;;;;;;;3.55;1.25;;;;;;;;;;5099403;28;20048;-61
2024/03/25 08:55:16;;;;;;;8.15;1.58;;;;;;;;;;5094482;28;20028;-62
2024/03/25 08:57:42;;;;;;;5.85;1.20;;;;;;;;;;5113286;28;20039;-62
2024/03/25 09:00:11;;;;;;;3.17;1.40;;;;;;;;;;5114072;28;20032;-62
2024/03/25 09:02:37;;;;;;;5.15;1.30;;;;;;;;;;5111911;28;20236;-62
2024/03/25 09:05:05;;;;;;;6.43;2.05;;;;;;;;;;5098695;28;20446;-58
2024/03/25 09:07:31;;;;;;;6.72;2.00;;;;;;;;;;5093814;28;20020;-61
2024/03/25 09:12:59;;;;;;;7.40;2.00;;;;;;;;;;5091717;28;20031;-62
2024/03/25 09:15:24;;;;;;;4.72;1.80;;;;;;;;;;5095937;28;20017;-58
2024/03/25 09:17:50;;;;;;;7.03;1.42;;;;;;;;;;5110870;28;20035;-63
2024/03/25 09:20:20;;;;;;;3.28;1.40;;;;;;;;;;5097569;28;20023;-65
2024/03/25 09:22:48;;;;;;;4.00;1.75;;;;;;;;;;5093279;28;20449;-61
2024/03/25 09:25:14;;;;;;;5.03;1.60;;;;;;;;;;5093775;28;20039;-64
2024/03/25 09:27:39;;;;;;;3.85;1.70;;;;;;;;;;5094743;28;20031;-62
2024/03/25 09:30:05;;;;;;;3.80;1.55;;;;;;;;;;5112704;28;20031;-59
2024/03/25 09:32:31;;;;;;;5.22;1.73;;;;;;;;;;5108886;28;20020;-59
2024/03/25 09:34:57;;;;;;;2.92;1.42;;;;;;;;;;5094702;28;20028;-61
2024/03/25 09:37:22;;;;;;;4.45;1.45;;;;;;;;;;5093340;28;20024;-63
2024/03/25 09:39:48;;;;;;;10.20;1.95;;;;;;;;;;5094394;28;20054;-64
2024/03/25 09:42:21;;;;;;;5.55;1.98;;;;;;;;;;5093155;28;20413;-60
2024/03/25 09:44:46;;;;;;;4.50;1.27;;;;;;;;;;5085004;28;20019;-64
2024/03/25 09:47:12;;;;;;;4.97;1.45;;;;;;;;;;5113977;28;20069;-62
2024/03/25 09:49:40;;;;;;;4.45;1.50;;;;;;;;;;5114211;28;20480;-63
2024/03/25 09:52:06;;;;;;;5.18;1.60;;;;;;;;;;5110661;28;20042;-63
2024/03/25 09:54:31;;;;;;;2.40;1.55;;;;;;;;;;5101151;28;20343;-60
2024/03/25 09:56:57;;;;;;;7.10;1.95;;;;;;;;;;5113836;28;20449;-62
2024/03/25 09:59:23;;;;;;;5.35;1.52;;;;;;;;;;5098277;28;20106;-63
2024/03/25 10:01:48;;;;;;;5.65;1.73;;;;;;;;;;5093024;28;20047;-58
2024/03/25 10:04:13;;;;;;;5.55;1.73;;;;;;;;;;5092618;28;20038;-63
2024/03/25 10:06:39;;;;;;;7.40;2.15;;;;;;;;;;5093252;28;20035;-56
2024/03/25 10:09:06;;;;;;;6.85;1.60;;;;;;;;;;5092912;28;20115;-54
2024/03/25 10:11:34;;;;;;;3.72;1.85;;;;;;;;;;5095374;28;20454;-60
2024/03/25 10:14:01;;;;;;;6.70;2.00;;;;;;;;;;5110382;28;20106;-61
2024/03/25 10:16:26;;;;;;;8.88;2.00;;;;;;;;;;5110496;28;20044;-61
2024/03/25 10:18:52;;;;;;;7.55;2.50;;;;;;;;;;5113667;28;20461;-58
2024/03/25 10:21:19;;;;;;;6.85;1.90;;;;;;;;;;5113243;28;20023;-62
2024/03/25 10:23:44;;;;;;;6.45;1.85;;;;;;;;;;5098243;28;20078;-62
2024/03/25 10:26:10;;;;;;;3.50;1.58;;;;;;;;;;5093451;28;20048;-63
2024/03/25 10:28:35;;;;;;;6.72;1.73;;;;;;;;;;5093619;28;20020;-64
2024/03/25 10:31:04;;;;;;;4.80;1.90;;;;;;;;;;5075968;28;20801;-62
2024/03/25 10:33:29;;;;;;;5.22;2.00;;;;;;;;;;5094012;28;20024;-63
2024/03/25 10:35:56;;;;;;;7.25;2.05;;;;;;;;;;5105426;28;20028;-63
2024/03/25 10:38:22;;;;;;;6.13;2.10;;;;;;;;;;5099530;28;20373;-61
2024/03/25 10:40:49;;;;;;;4.90;2.15;;;;;;;;;;5110317;28;20350;-65
2024/03/25 10:43:15;;;;;;;7.38;2.13;;;;;;;;;;5113489;28;20036;-62
2024/03/25 10:45:43;;;;;;;6.22;1.70;;;;;;;;;;5113140;28;20023;-64
2024/03/25 10:48:15;;;;;;;6.35;1.77;;;;;;;;;;5109737;28;20375;-70
2024/03/25 10:50:42;;;;;;;5.55;1.80;;;;;;;;;;5113070;28;20070;-62
2024/03/25 10:53:07;;;;;;;6.63;1.70;;;;;;;;;;5106848;28;20104;-59
2024/03/25 10:55:34;;;;;;;7.18;1.75;;;;;;;;;;5083156;28;20115;-56
2024/03/25 10:58:00;;;;;;;6.10;2.03;;;;;;;;;;5071562;28;20485;-58
2024/03/25 11:00:26;;;;;;;8.68;2.58;;;;;;;;;;5088021;28;20028;-56
2024/03/25 11:02:52;;;;;;;8.38;2.63;;;;;;;;;;5072796;28;20024;-60
2024/03/25 11:05:18;;;;;;;6.50;2.00;;;;;;;;;;5080381;28;20024;-59
2024/03/25 11:07:44;;;;;;;8.73;1.88;;;;;;;;;;5091576;28;20039;-61
2024/03/25 11:10:10;;;;;;;5.53;1.88;;;;;;;;;;5092421;28;20032;-57
2024/03/25 11:12:36;;;;;;;7.85;2.13;;;;;;;;;;5074328;28;20063;-58
2024/03/25 11:15:03;;;;;;;9.75;2.10;;;;;;;;;;5092041;28;20084;-59
2024/03/25 11:17:30;;;;;;;8.85;2.30;;;;;;;;;;5091558;28;20032;-61
2024/03/25 11:20:12;;;;;;;6.25;2.10;;;;;;;;;;5098356;28;20324;-63
2024/03/25 11:22:50;;;;;;;7.22;2.15;;;;;;;;;;5106020;28;20035;-63
2024/03/25 11:25:16;;;;;;;7.45;1.98;;;;;;;;;;5097466;28;20023;-63
2024/03/25 11:27:44;;;;;;;5.90;2.35;;;;;;;;;;5103556;28;20030;-62
2024/03/25 11:30:13;;;;;;;6.63;2.15;;;;;;;;;;5104049;28;20027;-63
2024/03/25 11:32:52;;;;;;;5.10;1.98;;;;;;;;;;5099095;28;20099;-64
2024/03/25 11:35:18;;;;;;;5.20;2.03;;;;;;;;;;5092728;28;20019;-64
2024/03/25 11:37:44;;;;;;;6.95;2.17;;;;;;;;;;5100000;28;20031;-63
2024/03/25 11:40:12;;;;;;;5.18;2.05;;;;;;;;;;5092314;28;20077;-64
2024/03/25 11:42:45;;;;;;;12.20;2.40;;;;;;;;;;5099860;28;20030;-64
2024/03/25 11:45:15;;;;;;;4.78;2.00;;;;;;;;;;5110916;28;20031;-63
2024/03/25 11:47:42;;;;;;;8.60;2.33;;;;;;;;;;5102123;28;20024;-60
2024/03/25 11:50:08;;;;;;;6.30;2.45;;;;;;;;;;5093133;28;20027;-60
2024/03/25 11:52:34;;;;;;;7.07;2.50;;;;;;;;;;5091418;28;20012;-62
2024/03/25 11:54:59;;;;;;;6.75;2.17;;;;;;;;;;5092605;28;20503;-63
2024/03/25 11:57:25;;;;;;;5.30;2.30;;;;;;;;;;5098241;28;20049;-61
2024/03/25 11:59:50;;;;;;;5.88;2.45;;;;;;;;;;5110571;28;20090;-63
2024/03/25 12:02:16;;;;;;;6.20;2.60;;;;;;;;;;5109398;28;20020;-62
2024/03/25 12:04:45;;;;;;;7.10;2.75;;;;;;;;;;5092726;28;20473;-63
2024/03/25 12:07:19;;;;;;;7.18;2.70;;;;;;;;;;5091981;28;20103;-62
2024/03/25 12:12:29;;;;;;;7.55;2.63;;;;;;;;;;5091814;28;20020;-56
2024/03/25 12:14:55;;;;;;;9.00;2.72;;;;;;;;;;5092186;28;20093;-62
2024/03/25 12:17:22;;;;;;;6.85;2.38;;;;;;;;;;5091165;28;20046;-62
2024/03/25 12:20:03;;;;;;;8.80;3.20;;;;;;;;;;5091714;28;20024;-63
2024/03/25 12:22:30;;;;;;;6.63;2.33;;;;;;;;;;5091184;28;20065;-55
2024/03/25 12:25:08;;;;;;;6.78;2.50;;;;;;;;;;5091847;28;20020;-63
2024/03/25 12:27:36;;;;;;;9.63;2.45;;;;;;;;;;5091974;28;20111;-62
2024/03/25 12:30:04;;;;;;;8.52;2.88;;;;;;;;;;5091566;28;20107;-62
2024/03/25 12:32:32;;;;;;;11.75;3.08;;;;;;;;;;5091284;28;20024;-60
2024/03/25 12:34:57;;;;;;;7.80;2.88;;;;;;;;;;5092162;28;20027;-61
2024/03/25 12:37:23;;;;;;;7.55;3.25;;;;;;;;;;5091672;28;20115;-61
2024/03/25 12:39:48;;;;;;;7.13;2.80;;;;;;;;;;5091078;28;20023;-58
2024/03/25 12:42:14;;;;;;;9.25;2.63;;;;;;;;;;5091235;28;20020;-61
2024/03/25 12:44:39;;;;;;;7.45;2.88;;;;;;;;;;5091676;28;20133;-61
2024/03/25 12:47:05;;;;;;;8.00;2.85;;;;;;;;;;5092296;28;20087;-63
2024/03/25 12:49:31;;;;;;;5.97;2.65;;;;;;;;;;5095619;28;20028;-58
2024/03/25 12:51:56;;;;;;;8.55;2.90;;;;;;;;;;5094800;28;20174;-62
2024/03/25 12:54:22;;;;;;;5.82;2.90;;;;;;;;;;5094356;28;20123;-62
2024/03/25 12:56:48;;;;;;;8.60;2.67;;;;;;;;;;5099872;28;20024;-62
2024/03/25 12:59:14;;;;;;;10.18;2.90;;;;;;;;;;5093606;28;20059;-63
2024/03/25 13:01:40;;;;;;;5.82;2.45;;;;;;;;;;5093415;28;20450;-63
2024/03/25 13:04:06;;;;;;;9.25;2.80;;;;;;;;;;5107907;28;20437;-62
2024/03/25 13:06:31;;;;;;;7.32;3.15;;;;;;;;;;5094968;28;20024;-55
2024/03/25 13:08:56;;;;;;;6.13;2.80;;;;;;;;;;5094456;28;20446;-64
2024/03/25 13:11:22;;;;;;;7.63;3.08;;;;;;;;;;5095127;28;20012;-64
2024/03/25 13:13:47;;;;;;;8.77;3.05;;;;;;;;;;5096077;28;20027;-64
2024/03/25 13:16:13;;;;;;;10.63;3.40;;;;;;;;;;5114905;28;20023;-64
2024/03/25 13:18:38;;;;;;;10.88;3.13;;;;;;;;;;5115176;28;19919;-62
2024/03/25 13:21:03;;;;;;;9.52;3.25;;;;;;;;;;5107582;28;20020;-63
2024/03/25 13:23:29;;;;;;;8.25;2.80;;;;;;;;;;5093947;28;20031;-63
2024/03/25 13:25:55;;;;;;;8.75;3.00;;;;;;;;;;5094140;28;20047;-63
2024/03/25 13:28:20;;;;;;;13.27;3.67;;;;;;;;;;5093376;28;20031;-60
2024/03/25 13:30:45;;;;;;;16.92;3.20;;;;;;;;;;5096960;28;20331;-62
2024/03/25 13:33:11;;;;;;;11.48;3.40;;;;;;;;;;5113923;28;20346;-56
2024/03/25 13:35:38;;;;;;;10.45;3.40;;;;;;;;;;5113285;28;20023;-61
2024/03/25 13:38:03;;;;;;;9.50;3.70;;;;;;;;;;5096299;27;20047;-60
2024/03/25 13:40:28;;;;;;;11.82;3.45;;;;;;;;;;5093577;28;20008;-61
2024/03/25 13:42:54;;;;;;;12.75;3.78;;;;;;;;;;5090317;28;20025;-62
2024/03/25 13:45:19;;;;;;;10.65;3.65;;;;;;;;;;5092587;28;20019;-59
2024/03/25 13:47:44;;;;;;;11.18;3.42;;;;;;;;;;5093698;28;20048;-57
2024/03/25 13:50:11;;;;;;;9.98;3.53;;;;;;;;;;5092413;28;20016;-62
2024/03/25 13:52:36;;;;;;;7.30;3.33;;;;;;;;;;5092662;28;20024;-62
2024/03/25 13:55:02;;;;;;;14.23;3.42;;;;;;;;;;5088840;28;20028;-60
2024/03/25 13:57:30;;;;;;;8.32;3.67;;;;;;;;;;5094134;28;20048;-63
2024/03/25 13:59:56;;;;;;;9.30;3.40;;;;;;;;;;5071961;28;20419;-58
2024/03/25 14:02:22;;;;;;;10.30;3.47;;;;;;;;;;5084953;28;20062;-59
2024/03/25 14:04:48;;;;;;;6.75;3.13;;;;;;;;;;5093611;28;20439;-56
2024/03/25 14:07:13;;;;;;;7.20;3.50;;;;;;;;;;5093702;28;20055;-57
2024/03/25 14:09:39;;;;;;;9.95;3.47;;;;;;;;;;5092763;28;20088;-58
2024/03/25 14:12:04;;;;;;;7.38;3.28;;;;;;;;;;5092294;28;20063;-62
2024/03/25 14:14:30;;;;;;;12.05;3.58;;;;;;;;;;5090718;28;20085;-59
2024/03/25 14:16:55;;;;;;;11.48;3.60;;;;;;;;;;5099982;28;20036;-60
2024/03/25 14:19:20;;;;;;;13.15;3.85;;;;;;;;;;5100479;28;20089;-58
2024/03/25 14:21:48;;;;;;;11.55;3.70;;;;;;;;;;5090029;28;20031;-57
2024/03/25 14:24:13;;;;;;;12.45;3.35;;;;;;;;;;5090191;28;20027;-58
2024/03/25 14:26:39;;;;;;;10.25;3.25;;;;;;;;;;5092161;28;20032;-57
2024/03/25 14:29:04;;;;;;;8.63;3.53;;;;;;;;;;5092254;28;20032;-59
2024/03/25 14:31:29;;;;;;;6.30;3.03;;;;;;;;;;5092452;28;20024;-62
2024/03/25 14:33:55;;;;;;;12.82;3.70;;;;;;;;;;5092537;28;20021;-61
2024/03/25 14:36:21;;;;;;;10.73;3.53;;;;;;;;;;5097039;28;20031;-62
2024/03/25 14:38:46;;;;;;;7.75;3.50;;;;;;;;;;5112934;28;20349;-60
2024/03/25 14:41:11;;;;;;;14.93;3.70;;;;;;;;;;5091458;28;20115;-61
2024/03/25 14:43:37;;;;;;;9.20;3.47;;;;;;;;;;5092599;28;20035;-61